B19 weather

Biddeford Municipal Airport
Biddeford, Maine, United States

Public forecast

Using degrees Fahrenheit for public forecast. Weather courtesy of forecast.io.

Closest aviation weather report (METAR) to Biddeford Municipal Airport

Closest report is Sanford Seacoast Regional Airport, 11.1 nm (20.6 km) WSW. Retrieved 2020/01/24 11:56 UTC (1 hour ago):

KSFM 241156Z AUTO 01003KT 10SM CLR M03/M08 A3041 RMK AO2 SLP304 6//// 7//// T10331083 11017 21072 53017 FZRANO PNO

Closest aviation forecast (TAF) to Biddeford Municipal Airport

Closest forecast is Portland International Jetport, 13.0 nm (24.1 km) NNE. Retrieved 2020/01/24 12:33 UTC (51 minutes ago):

TAF KPWM 241130Z 2412/2512 02004KT P6SM SCT200 FM242000 05007KT P6SM BKN020 FM250800 VRB03KT 4SM -DZ BR OVC009